createdAt,value
2022-10-26T00:02:35.000Z,24.44
2022-10-26T00:07:35.000Z,25.39
2022-10-26T00:12:35.000Z,25.16
2022-10-26T00:17:35.000Z,21.96
2022-10-26T00:22:34.000Z,20.41
2022-10-26T00:27:35.000Z,16.62
2022-10-26T00:32:34.000Z,14.53
2022-10-26T00:37:35.000Z,14.53
2022-10-26T00:42:35.000Z,12.28
2022-10-26T00:47:35.000Z,13.58
2022-10-26T00:52:35.000Z,12.17
2022-10-26T00:57:34.000Z,11.67
2022-10-26T01:02:35.000Z,11.31
2022-10-26T01:07:34.000Z,11.66
2022-10-26T01:12:35.000Z,11.74
2022-10-26T01:17:35.000Z,12.34
2022-10-26T01:22:34.000Z,11.38
2022-10-26T01:27:35.000Z,11.6
2022-10-26T01:32:35.000Z,10.26
2022-10-26T01:37:34.000Z,11.15
2022-10-26T01:42:35.000Z,10.28
2022-10-26T01:47:35.000Z,10
2022-10-26T01:52:35.000Z,10.58
2022-10-26T01:57:35.000Z,10.58
2022-10-26T02:02:34.000Z,9.83
2022-10-26T02:07:35.000Z,10.46
2022-10-26T02:12:34.000Z,10.44
2022-10-26T02:17:34.000Z,11.34
2022-10-26T02:22:35.000Z,11.77
2022-10-26T02:27:35.000Z,10.95
2022-10-26T02:32:35.000Z,11.54
2022-10-26T02:37:35.000Z,11.5
2022-10-26T02:42:35.000Z,12.39
2022-10-26T02:47:35.000Z,12.25
2022-10-26T02:57:35.000Z,12.13
2022-10-26T03:02:35.000Z,11.92
2022-10-26T03:07:35.000Z,12.48
2022-10-26T03:12:34.000Z,13.94
2022-10-26T03:17:35.000Z,12.8
2022-10-26T03:22:35.000Z,12.43
2022-10-26T03:27:34.000Z,14.27
2022-10-26T03:32:35.000Z,14.27
2022-10-26T03:37:35.000Z,12.86
2022-10-26T03:42:35.000Z,12.82
2022-10-26T03:47:35.000Z,13.18
2022-10-26T03:52:34.000Z,14.24
2022-10-26T03:57:35.000Z,13.9
2022-10-26T04:02:35.000Z,13.03
2022-10-26T04:07:35.000Z,12.7
2022-10-26T04:12:34.000Z,12.26
2022-10-26T04:22:35.000Z,13.44
2022-10-26T04:27:35.000Z,13.58
2022-10-26T04:32:35.000Z,13.92
2022-10-26T04:37:35.000Z,12.77
2022-10-26T04:42:34.000Z,12.79
2022-10-26T04:47:34.000Z,12.06
2022-10-26T04:52:35.000Z,12.65
2022-10-26T04:57:35.000Z,13.44
2022-10-26T05:02:35.000Z,13.34
2022-10-26T05:07:35.000Z,12.68
2022-10-26T05:12:34.000Z,11.96
2022-10-26T05:22:35.000Z,11.84
2022-10-26T05:27:35.000Z,11.26
2022-10-26T05:32:35.000Z,11.26
2022-10-26T05:37:35.000Z,12.81
2022-10-26T05:42:35.000Z,11.37
2022-10-26T05:47:35.000Z,12.14
2022-10-26T05:52:35.000Z,13.19
2022-10-26T05:57:35.000Z,12.77
2022-10-26T06:02:35.000Z,12.24
2022-10-26T06:07:34.000Z,12
2022-10-26T06:12:34.000Z,12.74
2022-10-26T06:17:35.000Z,12.68
2022-10-26T06:22:35.000Z,13.15
2022-10-26T06:27:35.000Z,12.28
2022-10-26T06:32:34.000Z,12.24
2022-10-26T06:37:34.000Z,12.13
2022-10-26T06:47:35.000Z,12.01
2022-10-26T06:52:35.000Z,11.91
2022-10-26T06:57:34.000Z,11.53
2022-10-26T07:02:35.000Z,11.84
2022-10-26T07:07:35.000Z,11.76
2022-10-26T07:12:36.000Z,11.87
2022-10-26T07:17:35.000Z,11.87
2022-10-26T07:22:35.000Z,12.5
2022-10-26T07:27:34.000Z,13.35
2022-10-26T07:32:35.000Z,12.19
2022-10-26T07:37:35.000Z,12.82
2022-10-26T07:42:34.000Z,12.17
2022-10-26T07:47:34.000Z,12.23
2022-10-26T07:52:35.000Z,12.18
2022-10-26T07:57:35.000Z,15.09
2022-10-26T08:02:35.000Z,12.9
2022-10-26T08:07:34.000Z,13.67
2022-10-26T08:12:35.000Z,12.26
2022-10-26T08:17:34.000Z,12.88
2022-10-26T08:22:34.000Z,13.38
2022-10-26T08:27:35.000Z,13.41
2022-10-26T08:32:35.000Z,11.71
2022-10-26T08:37:34.000Z,11.71
2022-10-26T08:42:34.000Z,13.33
2022-10-26T08:47:35.000Z,12.4
2022-10-26T08:52:35.000Z,12.73
2022-10-26T08:57:35.000Z,13.17
2022-10-26T09:02:35.000Z,13.16
2022-10-26T09:07:35.000Z,12.47
2022-10-26T09:12:34.000Z,11.95
2022-10-26T09:17:34.000Z,11.83
2022-10-26T09:22:35.000Z,12.26
2022-10-26T09:27:34.000Z,12.55
2022-10-26T09:32:35.000Z,12.42
2022-10-26T09:37:34.000Z,12.01
2022-10-26T09:42:35.000Z,12.05
2022-10-26T09:47:34.000Z,11.31
2022-10-26T09:52:35.000Z,11.31
2022-10-26T09:57:34.000Z,12.03
2022-10-26T10:02:35.000Z,11.4
2022-10-26T10:07:35.000Z,11.16
2022-10-26T10:12:35.000Z,10.91
2022-10-26T10:17:34.000Z,10.81
2022-10-26T10:22:34.000Z,10.68
2022-10-26T10:32:35.000Z,11.13
2022-10-26T10:37:35.000Z,11.81
2022-10-26T10:42:35.000Z,12.2
2022-10-26T10:47:34.000Z,11.18
2022-10-26T10:52:35.000Z,12.5
2022-10-26T10:57:34.000Z,12.5
2022-10-26T11:02:35.000Z,12.14
2022-10-26T11:07:35.000Z,12.82
2022-10-26T11:17:34.000Z,12.2
2022-10-26T11:22:35.000Z,11.42
2022-10-26T11:27:34.000Z,12.26
2022-10-26T11:32:35.000Z,11.7
2022-10-26T11:37:34.000Z,11.31
2022-10-26T11:42:35.000Z,12.36
2022-10-26T11:47:34.000Z,12.25
2022-10-26T11:52:35.000Z,12.81
2022-10-26T11:57:35.000Z,12.59
2022-10-26T12:02:35.000Z,13.3
2022-10-26T12:12:35.000Z,12.95
2022-10-26T12:17:35.000Z,13.82
2022-10-26T12:22:35.000Z,13.6
2022-10-26T12:27:34.000Z,12.68
2022-10-26T12:32:35.000Z,12.66
2022-10-26T12:37:35.000Z,12.55
2022-10-26T12:42:35.000Z,11.66
2022-10-26T12:47:34.000Z,12.53
2022-10-26T12:52:34.000Z,11.91
2022-10-26T12:57:35.000Z,13.01
2022-10-26T13:02:35.000Z,13.01
2022-10-26T13:07:34.000Z,12.29
2022-10-26T13:12:35.000Z,13.27
2022-10-26T13:17:35.000Z,12.83
2022-10-26T13:22:35.000Z,14.35
2022-10-26T13:27:35.000Z,13.81
2022-10-26T13:32:34.000Z,11.97
2022-10-26T13:37:35.000Z,13.93
2022-10-26T13:47:35.000Z,14.23
2022-10-26T13:57:35.000Z,16.73
2022-10-26T14:02:34.000Z,16.8
2022-10-26T14:07:35.000Z,16.8
2022-10-26T14:12:35.000Z,15.52
2022-10-26T14:17:34.000Z,13.63
2022-10-26T14:22:34.000Z,11.38
2022-10-26T14:27:35.000Z,11.8
2022-10-26T14:32:35.000Z,13.72
2022-10-26T14:37:34.000Z,14.43
2022-10-26T14:42:35.000Z,13.58
2022-10-26T14:47:35.000Z,13.46
2022-10-26T14:52:40.000Z,13.52
2022-10-26T14:57:34.000Z,12.52
2022-10-26T15:02:35.000Z,12.29
2022-10-26T15:07:35.000Z,13.41
2022-10-26T15:12:34.000Z,12.28
2022-10-26T15:17:35.000Z,11.78
2022-10-26T15:22:41.000Z,11.78
2022-10-26T15:27:34.000Z,11.03
2022-10-26T15:37:35.000Z,11.86
2022-10-26T15:42:35.000Z,11.76
2022-10-26T15:52:34.000Z,13.43
2022-10-26T15:57:35.000Z,13.32
2022-10-26T16:02:35.000Z,14.14
2022-10-26T16:07:34.000Z,13.85
2022-10-26T16:12:35.000Z,14.58
2022-10-26T16:17:34.000Z,14.89
2022-10-26T16:22:34.000Z,14.35
2022-10-26T16:27:35.000Z,14.04
2022-10-26T16:32:34.000Z,14.04
2022-10-26T16:37:34.000Z,12.73
2022-10-26T16:42:35.000Z,13.45
2022-10-26T16:47:35.000Z,13.9
2022-10-26T16:52:35.000Z,12.87
2022-10-26T16:57:35.000Z,12.56
2022-10-26T17:02:35.000Z,13.06
2022-10-26T17:07:34.000Z,12.96
2022-10-26T17:12:34.000Z,13.17
2022-10-26T17:22:35.000Z,14.17
2022-10-26T17:27:35.000Z,14.51
2022-10-26T17:32:35.000Z,14.13
2022-10-26T17:37:35.000Z,14.32
2022-10-26T17:42:35.000Z,15.55
2022-10-26T17:47:35.000Z,15.3
2022-10-26T17:52:35.000Z,15.01
2022-10-26T17:57:34.000Z,14.98
2022-10-26T18:02:35.000Z,15.79
2022-10-26T18:07:35.000Z,15.79
2022-10-26T18:12:35.000Z,15.83
2022-10-26T18:17:34.000Z,15.42
2022-10-26T18:22:34.000Z,15.92
2022-10-26T18:27:34.000Z,15.92
2022-10-26T18:32:34.000Z,15.41
2022-10-26T18:37:34.000Z,14.77
2022-10-26T18:42:35.000Z,15.29
2022-10-26T18:47:35.000Z,14.84
2022-10-26T18:52:35.000Z,15.58
2022-10-26T18:57:35.000Z,14.7
2022-10-26T19:02:35.000Z,14.08
2022-10-26T19:07:34.000Z,14.86
2022-10-26T19:12:35.000Z,15.55
2022-10-26T19:17:35.000Z,18.33
2022-10-26T19:22:35.000Z,17.83
2022-10-26T19:27:34.000Z,23.72
2022-10-26T19:32:34.000Z,29.23
2022-10-26T19:37:38.000Z,29.69
2022-10-26T19:42:34.000Z,29.69
2022-10-26T19:47:35.000Z,30.34
2022-10-26T19:52:35.000Z,27.89
2022-10-26T19:57:35.000Z,24.94
2022-10-26T20:02:35.000Z,25.03
2022-10-26T20:07:35.000Z,23.79
2022-10-26T20:12:35.000Z,26.7
2022-10-26T20:17:38.000Z,24.59
2022-10-26T20:22:35.000Z,22.69
2022-10-26T20:27:35.000Z,32.66
2022-10-26T20:32:35.000Z,48.5
2022-10-26T20:37:35.000Z,50.81
2022-10-26T20:42:35.000Z,58.18
2022-10-26T20:47:34.000Z,61.04
2022-10-26T20:52:35.000Z,62.36
2022-10-26T20:57:34.000Z,62.36
2022-10-26T21:02:34.000Z,61.5
2022-10-26T21:07:35.000Z,58.99
2022-10-26T21:12:34.000Z,56.24
2022-10-26T21:17:34.000Z,52.16
2022-10-26T21:22:35.000Z,51.19
2022-10-26T21:27:35.000Z,50.43
2022-10-26T21:32:35.000Z,49.33
2022-10-26T21:37:35.000Z,47.33
2022-10-26T21:42:35.000Z,46.57
2022-10-26T21:47:35.000Z,46.54
2022-10-26T21:52:34.000Z,45
2022-10-26T21:57:35.000Z,44.48
2022-10-26T22:02:34.000Z,40.1
2022-10-26T22:07:35.000Z,42.46
2022-10-26T22:12:35.000Z,42.46
2022-10-26T22:17:34.000Z,41.15
2022-10-26T22:22:34.000Z,40.55
2022-10-26T22:27:34.000Z,38.68
2022-10-26T22:32:34.000Z,41.93
2022-10-26T22:37:35.000Z,41.98
2022-10-26T22:42:35.000Z,43.28
2022-10-26T22:47:34.000Z,42.32
2022-10-26T22:52:35.000Z,44.14
2022-10-26T22:57:34.000Z,40.82
2022-10-26T23:02:35.000Z,40.3
2022-10-26T23:07:35.000Z,39.07
2022-10-26T23:12:34.000Z,35.43
2022-10-26T23:17:35.000Z,32.99
2022-10-26T23:22:34.000Z,33.97
2022-10-26T23:27:35.000Z,33.97
2022-10-26T23:32:34.000Z,35.6
2022-10-26T23:37:35.000Z,35.29
2022-10-26T23:42:34.000Z,31.55
2022-10-26T23:47:35.000Z,30.25
2022-10-26T23:52:34.000Z,25.48
2022-10-26T23:57:35.000Z,23.26
